Time;durP1;ratioP1;P1;durP2;ratioP2;P2;SDS_P1;SDS_P2;PMS_P1;PMS_P2;Temp;Humidity;BMP_temperature;BMP_pressure;BME280_temperature;BME280_humidity;BME280_pressure;Samples;Min_cycle;Max_cycle;Signal;HPM_P1;HPM_P2
2022/06/09 00:01:03;;;;;;;0.10;0.10;;;;;;;14.76;100.00;100584.78;10337359;28;20014;-91
2022/06/09 00:06:09;;;;;;;0.13;0.13;;;;;;;14.81;100.00;100596.59;10337135;28;20034;-91
2022/06/09 00:11:14;;;;;;;0.10;0.10;;;;;;;14.84;100.00;100585.50;10338694;28;20023;-91
2022/06/09 00:16:15;;;;;;;0.10;0.10;;;;;;;14.76;100.00;100584.78;10338861;28;20061;-90
2022/06/09 00:21:16;;;;;;;0.10;0.10;;;;;;;14.79;100.00;100598.63;10336218;28;20083;-88
2022/06/09 00:26:17;;;;;;;0.00;0.00;;;;;;;14.81;100.00;100598.47;10334599;28;20018;-90
2022/06/09 00:31:17;;;;;;;0.03;0.03;;;;;;;14.83;100.00;100605.25;10333901;28;20065;-89
2022/06/09 00:36:18;;;;;;;0.10;0.10;;;;;;;14.81;100.00;100599.28;10331263;28;20026;-93
2022/06/09 00:41:18;;;;;;;0.10;0.10;;;;;;;14.75;100.00;100589.34;10335339;28;20476;-92
2022/06/09 00:46:24;;;;;;;0.10;0.10;;;;;;;14.73;100.00;100586.00;10335192;28;20269;-92
2022/06/09 00:51:34;;;;;;;0.10;0.10;;;;;;;14.79;100.00;100595.97;10325258;28;20030;-92
2022/06/09 00:56:39;;;;;;;0.10;0.10;;;;;;;14.76;100.00;100588.31;10335779;28;20030;-91
2022/06/09 01:01:40;;;;;;;0.10;0.10;;;;;;;14.73;100.00;100586.00;10324823;28;20106;-90
2022/06/09 01:07:02;;;;;;;0.10;0.10;;;;;;;14.74;100.00;100597.56;10341758;28;20030;-92
2022/06/09 01:12:21;;;;;;;0.10;0.10;;;;;;;14.64;100.00;100589.84;10333461;28;20097;-91
2022/06/09 01:17:57;;;;;;;0.10;0.10;;;;;;;14.75;100.00;100599.19;10329718;28;20018;-92
2022/06/09 01:23:34;;;;;;;0.10;0.10;;;;;;;14.70;100.00;100603.31;10312914;28;20026;-92
2022/06/09 01:28:47;;;;;;;0.10;0.10;;;;;;;14.66;100.00;100607.41;10332166;28;20062;-91
2022/06/09 01:34:03;;;;;;;0.10;0.10;;;;;;;14.48;100.00;100575.63;10334429;28;20394;-92
2022/06/09 01:39:05;;;;;;;0.10;0.10;;;;;;;14.45;100.00;100570.63;10343290;28;20034;-91
2022/06/09 01:44:06;;;;;;;0.10;0.10;;;;;;;14.37;100.00;100568.09;10342818;28;20089;-91
2022/06/09 01:49:26;;;;;;;0.10;0.10;;;;;;;14.38;100.00;100577.78;10342961;28;20092;-91
2022/06/09 01:54:34;;;;;;;0.10;0.10;;;;;;;14.36;100.00;100573.66;10343766;28;20030;-92
2022/06/09 01:59:54;;;;;;;0.00;0.00;;;;;;;14.37;100.00;100580.66;10341753;28;20029;-91
2022/06/09 02:05:04;;;;;;;0.10;0.10;;;;;;;14.29;100.00;100573.59;10312330;28;20037;-92
2022/06/09 02:10:12;;;;;;;0.10;0.10;;;;;;;14.15;100.00;100553.03;10342250;28;20029;-92
2022/06/09 02:15:21;;;;;;;0.10;0.10;;;;;;;14.20;100.00;100570.19;10339683;28;20038;-92
2022/06/09 02:20:23;;;;;;;0.10;0.10;;;;;;;14.20;100.00;100574.72;10336569;28;20090;-90
2022/06/09 02:25:24;;;;;;;0.10;0.10;;;;;;;14.19;100.00;100573.88;10341002;28;20030;-92
2022/06/09 02:30:25;;;;;;;0.10;0.10;;;;;;;14.24;100.00;100581.34;10343980;28;20479;-91
2022/06/09 02:35:25;;;;;;;0.10;0.10;;;;;;;14.13;100.00;100563.91;10337793;28;20027;-90
2022/06/09 02:40:27;;;;;;;0.10;0.10;;;;;;;14.25;100.00;100593.72;10341344;23;20160;-72
2022/06/09 02:45:29;;;;;;;0.10;0.10;;;;;;;14.23;100.00;100593.09;10264646;28;20033;-72
2022/06/09 02:50:30;;;;;;;0.10;0.10;;;;;;;14.20;100.00;100601.50;10249837;28;20019;-73
2022/06/09 02:55:30;;;;;;;0.10;0.10;;;;;;;14.11;100.00;100591.91;10248936;28;20031;-73
2022/06/09 03:00:31;;;;;;;0.10;0.10;;;;;;;14.06;100.00;100599.69;10259064;28;20018;-73
2022/06/09 03:05:35;;;;;;;0.10;0.10;;;;;;;14.04;100.00;100602.53;10259626;28;20031;-73
2022/06/09 03:10:37;;;;;;;0.10;0.10;;;;;;;14.03;100.00;100600.88;10248968;28;20038;-73
2022/06/09 03:15:37;;;;;;;0.00;0.00;;;;;;;14.01;100.00;100602.91;10249512;28;20019;-73
2022/06/09 03:20:37;;;;;;;0.10;0.10;;;;;;;13.98;100.00;100603.28;10280488;28;20019;-72
2022/06/09 03:25:38;;;;;;;0.10;0.10;;;;;;;14.00;100.00;100599.41;10288013;28;20029;-73
2022/06/09 03:30:38;;;;;;;0.10;0.10;;;;;;;14.03;100.00;100603.56;10318738;28;20023;-72
2022/06/09 03:35:38;;;;;;;0.10;0.10;;;;;;;14.02;100.00;100605.41;10269333;28;20378;-73
2022/06/09 03:40:41;;;;;;;0.10;0.10;;;;;;;14.01;100.00;100609.09;10288063;28;20133;-73
2022/06/09 03:45:41;;;;;;;0.10;0.10;;;;;;;14.01;100.00;100613.63;10257620;28;20913;-71
2022/06/09 03:50:41;;;;;;;0.10;0.10;;;;;;;14.02;100.00;100620.63;10261185;28;20039;-73
2022/06/09 03:55:41;;;;;;;0.10;0.10;;;;;;;14.06;100.00;100613.06;10271602;28;20528;-73
2022/06/09 04:00:42;;;;;;;0.10;0.10;;;;;;;14.14;100.00;100615.66;10249678;28;20674;-73
2022/06/09 04:05:42;;;;;;;0.10;0.10;;;;;;;14.20;100.00;100614.91;10254470;28;20338;-72
2022/06/09 04:10:42;;;;;;;0.10;0.10;;;;;;;14.22;100.00;100616.38;10254405;28;20356;-72
2022/06/09 04:15:44;;;;;;;0.10;0.10;;;;;;;14.26;100.00;100625.69;10255418;28;20038;-72
2022/06/09 04:20:44;;;;;;;0.10;0.10;;;;;;;14.31;100.00;100629.63;10252072;28;20027;-72
2022/06/09 04:25:44;;;;;;;0.10;0.10;;;;;;;14.33;100.00;100622.25;10258385;28;20438;-72
2022/06/09 04:30:46;;;;;;;0.10;0.10;;;;;;;14.35;100.00;100620.22;10250734;28;20389;-72
2022/06/09 04:35:46;;;;;;;0.10;0.10;;;;;;;14.36;100.00;100644.13;10256525;28;20027;-72
2022/06/09 04:40:47;;;;;;;0.10;0.10;;;;;;;14.45;100.00;100650.22;10266781;28;20023;-72
2022/06/09 04:45:47;;;;;;;0.10;0.10;;;;;;;14.65;100.00;100648.59;10261605;28;20030;-73
2022/06/09 04:50:48;;;;;;;0.10;0.10;;;;;;;14.97;100.00;100653.66;10259102;28;20023;-73
2022/06/09 04:55:48;;;;;;;0.10;0.10;;;;;;;15.23;100.00;100661.13;10261815;28;20354;-73
2022/06/09 05:00:48;;;;;;;0.10;0.10;;;;;;;15.40;100.00;100660.66;10261368;28;20015;-73
2022/06/09 05:05:50;;;;;;;0.10;0.10;;;;;;;15.44;100.00;100663.75;10263670;28;20078;-73
2022/06/09 05:10:53;;;;;;;0.00;0.00;;;;;;;15.38;100.00;100675.28;10261842;28;20019;-73
2022/06/09 05:15:56;;;;;;;0.10;0.10;;;;;;;15.31;100.00;100685.16;10280159;28;20019;-73
2022/06/09 05:20:57;;;;;;;0.10;0.10;;;;;;;15.32;100.00;100694.84;10262012;28;20015;-73
2022/06/09 05:26:00;;;;;;;0.10;0.10;;;;;;;15.29;100.00;100703.28;10273219;28;20023;-73
2022/06/09 05:31:01;;;;;;;0.10;0.10;;;;;;;15.31;100.00;100717.34;10262959;28;20035;-73
2022/06/09 05:36:02;;;;;;;0.10;0.10;;;;;;;15.34;100.00;100728.53;10265535;28;20047;-73
2022/06/09 05:46:22;;;;;;;0.10;0.10;;;;;;;15.38;100.00;100739.69;10251567;28;20027;-73
2022/06/09 05:51:22;;;;;;;0.10;0.10;;;;;;;15.52;100.00;100748.69;10271154;28;20022;-73
2022/06/09 05:56:23;;;;;;;0.10;0.10;;;;;;;15.58;100.00;100748.75;10269222;28;20371;-73
2022/06/09 06:01:23;;;;;;;0.10;0.10;;;;;;;15.61;100.00;100763.63;10277796;28;20024;-73
2022/06/09 06:06:35;;;;;;;0.10;0.10;;;;;;;15.63;100.00;100777.72;10257565;28;20078;-73
2022/06/09 06:11:38;;;;;;;0.08;0.08;;;;;;;15.67;100.00;100784.34;10296512;28;20054;-73
2022/06/09 06:16:39;;;;;;;0.10;0.10;;;;;;;15.73;100.00;100801.56;10268601;28;20081;-73
2022/06/09 06:21:41;;;;;;;0.10;0.10;;;;;;;15.84;100.00;100804.56;10261083;28;20034;-73
2022/06/09 06:26:41;;;;;;;0.10;0.10;;;;;;;15.95;100.00;100810.44;10263420;28;20018;-73
2022/06/09 06:31:43;;;;;;;0.10;0.10;;;;;;;16.01;100.00;100821.22;10264233;28;20039;-73
2022/06/09 06:36:44;;;;;;;0.10;0.10;;;;;;;16.04;100.00;100833.44;10270477;28;20030;-73
2022/06/09 06:41:44;;;;;;;0.00;0.00;;;;;;;16.17;100.00;100838.06;10252884;28;20557;-73
2022/06/09 06:46:44;;;;;;;0.10;0.10;;;;;;;16.36;100.00;100845.47;10249330;28;20481;-73
2022/06/09 06:51:45;;;;;;;0.10;0.10;;;;;;;16.65;100.00;100852.47;10249402;28;20042;-73
2022/06/09 06:56:45;;;;;;;0.10;0.10;;;;;;;16.95;100.00;100865.66;10263657;28;20020;-74
2022/06/09 07:01:45;;;;;;;0.10;0.10;;;;;;;17.19;100.00;100878.63;10248528;28;20030;-73
2022/06/09 07:06:46;;;;;;;0.00;0.00;;;;;;;17.49;100.00;100890.94;10256657;28;20023;-73
2022/06/09 07:11:46;;;;;;;0.10;0.10;;;;;;;17.76;100.00;100886.44;10252428;28;20019;-74
2022/06/09 07:16:47;;;;;;;0.00;0.00;;;;;;;17.94;100.00;100888.56;10258139;28;20021;-74
2022/06/09 07:21:47;;;;;;;0.10;0.10;;;;;;;17.85;100.00;100890.59;10284626;28;20022;-74
2022/06/09 07:26:47;;;;;;;0.10;0.10;;;;;;;17.86;100.00;100913.84;10262857;28;20038;-73
2022/06/09 07:31:48;;;;;;;0.10;0.10;;;;;;;18.18;100.00;100911.34;10251608;28;20041;-74
2022/06/09 07:36:48;;;;;;;0.00;0.00;;;;;;;18.24;100.00;100918.66;10255689;28;20026;-74
2022/06/09 07:41:49;;;;;;;0.10;0.10;;;;;;;18.18;100.00;100924.84;10287631;28;20023;-74
2022/06/09 07:46:49;;;;;;;0.10;0.10;;;;;;;17.90;100.00;100925.88;10307829;28;20270;-74
2022/06/09 07:51:50;;;;;;;0.10;0.10;;;;;;;17.91;100.00;100938.28;10251076;28;20035;-74
2022/06/09 07:56:51;;;;;;;0.00;0.00;;;;;;;17.88;100.00;100949.47;10257342;28;20114;-74
2022/06/09 08:01:51;;;;;;;0.10;0.10;;;;;;;17.83;100.00;100962.72;10247057;28;20102;-74
2022/06/09 08:06:52;;;;;;;0.00;0.00;;;;;;;18.03;100.00;100954.69;10246205;28;20023;-74
2022/06/09 08:11:52;;;;;;;0.10;0.10;;;;;;;18.29;100.00;100961.97;10247165;28;20030;-75
2022/06/09 08:16:52;;;;;;;0.10;0.10;;;;;;;18.59;100.00;100975.03;10250909;28;20031;-74
2022/06/09 08:21:53;;;;;;;0.00;0.00;;;;;;;18.52;100.00;100975.88;10250763;28;20023;-74
2022/06/09 08:26:53;;;;;;;0.10;0.10;;;;;;;18.29;100.00;100980.84;10281644;28;20093;-74
2022/06/09 08:31:54;;;;;;;0.10;0.10;;;;;;;18.13;100.00;100992.03;10256866;28;20033;-74
2022/06/09 08:36:55;;;;;;;0.00;0.00;;;;;;;18.31;100.00;100986.88;10245357;28;20278;-74
2022/06/09 08:42:02;;;;;;;0.08;0.08;;;;;;;19.02;100.00;100996.19;10297891;23;20043;-73
2022/06/09 08:47:12;;;;;;;0.10;0.10;;;;;;;19.92;100.00;101001.72;10324812;28;20030;-72
2022/06/09 08:52:43;;;;;;;0.10;0.10;;;;;;;20.11;100.00;101007.00;10325601;28;20061;-72
2022/06/09 08:57:45;;;;;;;0.00;0.00;;;;;;;20.08;100.00;101010.16;10324063;28;20492;-72
2022/06/09 09:02:59;;;;;;;0.00;0.00;;;;;;;20.23;100.00;101019.84;10325872;28;20473;-72
2022/06/09 09:08:02;;;;;;;0.00;0.00;;;;;;;20.40;100.00;101015.56;10324278;28;20032;-73
2022/06/09 09:13:08;;;;;;;0.10;0.10;;;;;;;20.44;100.00;101037.56;10325867;28;20456;-73
2022/06/09 09:18:23;;;;;;;0.10;0.10;;;;;;;20.50;100.00;101045.63;10329711;28;20044;-73
2022/06/09 09:23:33;;;;;;;0.00;0.00;;;;;;;20.28;100.00;101041.66;10326595;28;20434;-73
2022/06/09 09:28:48;;;;;;;0.00;0.00;;;;;;;20.15;100.00;101055.25;10328461;28;20026;-73
2022/06/09 09:33:48;;;;;;;0.00;0.00;;;;;;;20.07;100.00;101056.31;10326674;28;20025;-73
2022/06/09 09:39:11;;;;;;;0.10;0.10;;;;;;;19.71;100.00;101065.84;10333820;28;20029;-73
2022/06/09 09:44:23;;;;;;;0.10;0.10;;;;;;;19.28;100.00;101069.03;10332754;28;20444;-73
2022/06/09 09:49:29;;;;;;;0.10;0.10;;;;;;;19.15;100.00;101082.59;10320846;28;20026;-73
2022/06/09 09:54:36;;;;;;;0.00;0.00;;;;;;;19.21;100.00;101085.25;10327894;28;20022;-73
2022/06/09 09:59:55;;;;;;;0.10;0.10;;;;;;;19.54;100.00;101083.53;10323738;28;20023;-73
2022/06/09 10:10:19;;;;;;;0.08;0.08;;;;;;;19.78;100.00;101115.31;10330541;28;20537;-73
2022/06/09 10:15:22;;;;;;;0.00;0.00;;;;;;;19.95;100.00;101120.22;10330471;28;20397;-73
2022/06/09 10:20:38;;;;;;;0.00;0.00;;;;;;;20.19;100.00;101124.06;10329438;28;20019;-73
2022/06/09 10:25:39;;;;;;;0.00;0.00;;;;;;;20.49;100.00;101130.56;10329754;28;20030;-73
2022/06/09 10:30:45;;;;;;;0.00;0.00;;;;;;;21.01;100.00;101138.59;10327005;28;20033;-73
2022/06/09 10:35:56;;;;;;;0.00;0.00;;;;;;;21.13;97.00;101152.25;10329088;28;20026;-73
2022/06/09 10:41:00;;;;;;;0.00;0.00;;;;;;;21.00;99.50;101154.00;10329896;28;20147;-73
2022/06/09 10:46:25;;;;;;;0.00;0.00;;;;;;;20.92;96.39;101167.00;10329029;28;20370;-73
2022/06/09 10:57:17;;;;;;;0.00;0.00;;;;;;;22.23;95.87;101181.41;10328500;28;20050;-73
2022/06/09 11:02:24;;;;;;;0.00;0.00;;;;;;;22.63;90.65;101180.88;10328850;28;20101;-73
2022/06/09 11:07:39;;;;;;;0.00;0.00;;;;;;;22.12;90.54;101182.97;10326796;28;20018;-73
2022/06/09 11:13:02;;;;;;;0.00;0.00;;;;;;;21.58;93.10;101190.00;10327137;28;20030;-73
2022/06/09 11:18:09;;;;;;;0.00;0.00;;;;;;;21.98;94.31;101189.59;10325957;28;20053;-73
2022/06/09 11:23:44;;;;;;;0.00;0.00;;;;;;;21.81;93.31;101201.03;10321015;28;20092;-73
2022/06/09 11:29:01;;;;;;;0.00;0.00;;;;;;;21.96;98.10;101202.53;10299495;28;20057;-73
2022/06/09 11:34:19;;;;;;;0.03;0.03;;;;;;;21.72;95.05;101202.38;10327338;28;20045;-73
2022/06/09 11:40:02;;;;;;;0.00;0.00;;;;;;;22.29;92.68;101205.75;10328376;28;20021;-73
2022/06/09 11:45:44;;;;;;;0.10;0.10;;;;;;;22.74;92.25;101209.94;10301360;28;20038;-70
2022/06/09 11:50:45;;;;;;;;;;;;;;;23.42;87.43;101217.72;10315924;28;20053;-73
2022/06/09 11:55:58;;;;;;;0.00;0.00;;;;;;;23.32;84.73;101222.88;10327048;28;20392;-71
2022/06/09 12:01:10;;;;;;;0.05;0.05;;;;;;;22.19;85.65;101227.13;10326869;28;20367;-72
2022/06/09 12:06:38;;;;;;;0.00;0.00;;;;;;;21.76;85.91;101219.00;10326926;28;20377;-72
2022/06/09 12:12:24;;;;;;;0.00;0.00;;;;;;;22.43;90.75;101238.13;10326369;28;20042;-72
2022/06/09 12:17:33;;;;;;;0.00;0.00;;;;;;;22.75;84.00;101241.50;10318632;28;20030;-72
2022/06/09 12:22:39;;;;;;;0.00;0.00;;;;;;;22.47;88.69;101242.06;10324929;28;20044;-71
2022/06/09 12:27:46;;;;;;;0.00;0.00;;;;;;;22.57;86.06;101245.91;10325823;28;20378;-72
2022/06/09 12:32:48;;;;;;;0.10;0.10;;;;;;;22.88;84.61;101249.44;10325706;28;20480;-72
2022/06/09 12:38:02;;;;;;;0.00;0.00;;;;;;;22.86;85.95;101251.56;10325688;28;20045;-72
2022/06/09 12:43:07;;;;;;;0.10;0.10;;;;;;;22.70;85.80;101257.63;10322117;28;20029;-72
2022/06/09 12:48:12;;;;;;;0.00;0.00;;;;;;;22.10;84.04;101261.84;10325448;28;20032;-71
2022/06/09 12:53:21;;;;;;;0.10;0.10;;;;;;;22.59;87.37;101260.06;10326092;28;20022;-72
2022/06/09 12:58:29;;;;;;;0.00;0.00;;;;;;;23.05;90.63;101264.06;10319864;28;20044;-72
2022/06/09 13:03:31;;;;;;;0.00;0.00;;;;;;;23.23;84.84;101278.66;10329272;28;20018;-72
2022/06/09 13:08:32;;;;;;;0.00;0.00;;;;;;;23.07;83.14;101279.28;10333028;28;20034;-71
2022/06/09 13:13:41;;;;;;;0.00;0.00;;;;;;;23.09;81.88;101286.16;10332853;28;20030;-72
2022/06/09 13:18:52;;;;;;;0.10;0.10;;;;;;;23.05;81.82;101291.22;10331266;28;20026;-72
2022/06/09 13:23:56;;;;;;;0.00;0.00;;;;;;;23.10;83.16;101289.72;10332736;28;20022;-72
2022/06/09 13:28:59;;;;;;;0.08;0.08;;;;;;;22.65;79.56;101299.03;10330898;28;20025;-72
2022/06/09 13:34:02;;;;;;;0.00;0.00;;;;;;;22.51;83.78;101309.22;10331854;28;20046;-72
2022/06/09 13:39:28;;;;;;;0.00;0.00;;;;;;;22.50;80.07;101313.00;10332693;28;20462;-72
2022/06/09 13:44:50;;;;;;;0.00;0.00;;;;;;;22.52;80.80;101321.75;10330269;28;20026;-72
2022/06/09 13:50:12;;;;;;;0.00;0.00;;;;;;;22.45;83.19;101325.59;10331869;28;20058;-72
2022/06/09 13:55:18;;;;;;;0.00;0.00;;;;;;;22.22;80.18;101329.78;10330842;28;20072;-72
2022/06/09 14:00:27;;;;;;;0.00;0.00;;;;;;;22.24;78.59;101337.72;10331758;28;20552;-73
2022/06/09 14:05:30;;;;;;;0.10;0.10;;;;;;;22.34;79.57;101340.72;10330542;28;20033;-72
2022/06/09 14:10:31;;;;;;;0.10;0.10;;;;;;;22.15;74.48;101345.28;10330773;28;20014;-72
2022/06/09 14:15:34;;;;;;;0.00;0.00;;;;;;;21.90;77.02;101348.00;10328135;28;20392;-72
2022/06/09 14:20:35;;;;;;;0.00;0.00;;;;;;;21.99;83.49;101356.69;10330781;28;20049;-72
2022/06/09 14:25:35;;;;;;;0.00;0.00;;;;;;;22.03;79.30;101355.22;10329806;28;20105;-72
2022/06/09 14:30:35;;;;;;;0.00;0.00;;;;;;;21.97;80.04;101362.34;10325596;28;20481;-72
2022/06/09 14:35:36;;;;;;;0.00;0.00;;;;;;;21.78;78.57;101363.34;10328937;28;20363;-72
2022/06/09 14:40:39;;;;;;;0.00;0.00;;;;;;;21.83;80.82;101371.66;10329936;28;20523;-72
2022/06/09 14:45:45;;;;;;;0.00;0.00;;;;;;;21.79;79.66;101378.56;10346625;22;20077;-72
2022/06/09 14:50:45;;;;;;;0.00;0.00;;;;;;;21.59;82.62;101394.97;10356007;28;20054;-72
2022/06/09 14:55:46;;;;;;;0.00;0.00;;;;;;;21.83;81.71;101388.75;10347553;28;20050;-72
2022/06/09 15:00:47;;;;;;;0.00;0.00;;;;;;;21.93;78.42;101404.50;10346762;28;20396;-72
2022/06/09 15:05:48;;;;;;;0.05;0.05;;;;;;;21.99;79.20;101414.50;10345979;28;20022;-72
2022/06/09 15:10:51;;;;;;;0.00;0.00;;;;;;;21.99;80.04;101417.22;10354274;28;20025;-72
2022/06/09 15:15:52;;;;;;;0.10;0.10;;;;;;;21.95;81.60;101426.00;10360969;28;20025;-72
2022/06/09 15:20:52;;;;;;;0.00;0.00;;;;;;;21.77;82.71;101434.91;10348475;28;20369;-72
2022/06/09 15:25:54;;;;;;;0.00;0.00;;;;;;;21.61;80.17;101445.22;10366134;28;20048;-72
2022/06/09 15:30:55;;;;;;;0.00;0.00;;;;;;;21.14;85.07;101446.44;10367903;28;20116;-72
2022/06/09 15:35:56;;;;;;;0.00;0.00;;;;;;;20.83;85.88;101453.41;10372340;28;20160;-72
2022/06/09 15:40:56;;;;;;;0.00;0.00;;;;;;;20.77;87.49;101451.56;10371463;28;20026;-72
2022/06/09 15:45:56;;;;;;;0.00;0.00;;;;;;;20.63;88.60;101463.44;10365200;28;20037;-72
2022/06/09 15:50:58;;;;;;;0.00;0.00;;;;;;;20.63;92.39;101474.28;10361531;28;20092;-72
2022/06/09 15:55:58;;;;;;;0.00;0.00;;;;;;;19.97;99.43;101489.38;10371375;28;20548;-72
2022/06/09 16:00:59;;;;;;;0.10;0.10;;;;;;;19.55;100.00;101485.09;10369690;28;20028;-72
2022/06/09 16:05:59;;;;;;;0.00;0.00;;;;;;;19.21;100.00;101492.22;10370455;28;20076;-72
2022/06/09 16:10:59;;;;;;;0.00;0.00;;;;;;;18.84;100.00;101502.38;10370610;28;20113;-72
2022/06/09 16:16:00;;;;;;;0.00;0.00;;;;;;;18.73;100.00;101506.47;10370473;28;20038;-72
2022/06/09 16:21:00;;;;;;;0.00;0.00;;;;;;;18.60;100.00;101510.88;10353261;28;20113;-72
2022/06/09 16:26:00;;;;;;;0.10;0.10;;;;;;;18.33;100.00;101514.19;10368339;28;20705;-72
2022/06/09 16:31:01;;;;;;;0.10;0.10;;;;;;;18.17;100.00;101524.41;10369467;28;20108;-72
2022/06/09 16:36:01;;;;;;;0.00;0.00;;;;;;;17.86;100.00;101525.53;10376084;28;20080;-72
2022/06/09 16:41:01;;;;;;;0.10;0.10;;;;;;;17.64;100.00;101525.44;10382889;28;20071;-72
2022/06/09 16:46:02;;;;;;;0.00;0.00;;;;;;;17.66;100.00;101536.03;10374782;28;20493;-72
2022/06/09 16:51:03;;;;;;;0.00;0.00;;;;;;;17.74;100.00;101543.16;10342019;28;20524;-72
2022/06/09 16:56:03;;;;;;;0.10;0.10;;;;;;;17.78;100.00;101553.44;10341761;28;20265;-72
2022/06/09 17:01:04;;;;;;;0.10;0.10;;;;;;;17.61;100.00;101562.72;10342084;28;20030;-72
2022/06/09 17:06:07;;;;;;;0.00;0.00;;;;;;;17.31;100.00;101565.41;10341906;28;20430;-71
2022/06/09 17:11:12;;;;;;;0.00;0.00;;;;;;;17.15;100.00;101576.34;10341979;28;20054;-72
2022/06/09 17:16:13;;;;;;;0.00;0.00;;;;;;;17.17;100.00;101590.47;10341541;28;20026;-72
2022/06/09 17:21:17;;;;;;;0.10;0.10;;;;;;;16.93;100.00;101594.25;10357353;28;20027;-71
2022/06/09 17:26:18;;;;;;;0.10;0.10;;;;;;;16.77;100.00;101602.44;10342086;28;20033;-72
2022/06/09 17:31:18;;;;;;;0.10;0.10;;;;;;;16.63;100.00;101596.81;10341081;28;20466;-72
2022/06/09 17:36:19;;;;;;;0.10;0.10;;;;;;;16.56;100.00;101603.94;10340943;28;20031;-72
2022/06/09 17:41:20;;;;;;;0.00;0.00;;;;;;;16.46;100.00;101603.31;10341977;28;20386;-72
2022/06/09 17:46:20;;;;;;;0.00;0.00;;;;;;;16.42;100.00;101618.16;10341371;28;20026;-71
2022/06/09 17:51:20;;;;;;;0.10;0.10;;;;;;;16.40;100.00;101626.38;10342687;28;20034;-72
2022/06/09 17:56:21;;;;;;;0.00;0.00;;;;;;;16.35;100.00;101639.53;10336087;28;20504;-72
2022/06/09 18:01:21;;;;;;;0.00;0.00;;;;;;;16.26;100.00;101641.44;10335323;28;20022;-72
2022/06/09 18:06:22;;;;;;;0.10;0.10;;;;;;;16.20;100.00;101647.53;10335536;28;20751;-72
2022/06/09 18:11:23;;;;;;;0.10;0.10;;;;;;;16.12;100.00;101652.09;10336127;28;20398;-72
2022/06/09 18:16:24;;;;;;;0.10;0.10;;;;;;;16.07;100.00;101660.69;10329826;28;20027;-71
2022/06/09 18:21:27;;;;;;;0.10;0.10;;;;;;;15.94;100.00;101663.94;10338473;28;20027;-71
2022/06/09 18:26:27;;;;;;;0.10;0.10;;;;;;;15.87;100.00;101670.16;10332638;28;20030;-71
2022/06/09 18:31:28;;;;;;;0.10;0.10;;;;;;;15.85;100.00;101686.44;10334453;28;20046;-71
2022/06/09 18:36:28;;;;;;;0.10;0.10;;;;;;;15.73;100.00;101687.81;10334189;28;20109;-71
2022/06/09 18:41:29;;;;;;;0.00;0.00;;;;;;;15.58;100.00;101701.09;10334151;28;20477;-71
2022/06/09 18:46:29;;;;;;;0.10;0.10;;;;;;;15.45;100.00;101706.16;10332894;28;20030;-71
2022/06/09 18:51:30;;;;;;;0.10;0.10;;;;;;;15.35;100.00;101712.53;10333374;28;20439;-71
2022/06/09 18:56:30;;;;;;;0.00;0.00;;;;;;;15.31;100.00;101718.41;10339979;28;20057;-71
2022/06/09 19:01:31;;;;;;;0.10;0.10;;;;;;;15.27;100.00;101736.72;10333148;28;20287;-73
2022/06/09 19:06:31;;;;;;;0.10;0.10;;;;;;;15.19;100.00;101736.69;10332047;28;20088;-71
2022/06/09 19:11:31;;;;;;;0.00;0.00;;;;;;;15.16;100.00;101745.09;10332430;28;20022;-71
2022/06/09 19:16:32;;;;;;;0.10;0.10;;;;;;;15.09;100.00;101746.75;10331779;28;20022;-71
2022/06/09 19:21:34;;;;;;;0.10;0.10;;;;;;;15.04;100.00;101751.75;10332043;28;20034;-73
2022/06/09 19:26:36;;;;;;;0.10;0.10;;;;;;;15.00;100.00;101759.31;10330602;28;20025;-71
2022/06/09 19:31:36;;;;;;;0.10;0.10;;;;;;;14.96;100.00;101766.03;10329508;28;20022;-71
2022/06/09 19:36:37;;;;;;;0.10;0.10;;;;;;;14.88;100.00;101766.84;10330592;28;20029;-71
2022/06/09 19:41:38;;;;;;;0.00;0.00;;;;;;;14.80;100.00;101774.84;10330954;28;20029;-71
2022/06/09 19:46:38;;;;;;;0.10;0.10;;;;;;;14.71;100.00;101787.41;10329895;28;20052;-71
2022/06/09 19:51:39;;;;;;;0.10;0.10;;;;;;;14.57;100.00;101782.66;10329125;28;20077;-71
2022/06/09 19:56:40;;;;;;;0.10;0.10;;;;;;;14.43;100.00;101804.72;10333519;28;20018;-71
2022/06/09 20:01:40;;;;;;;0.10;0.10;;;;;;;14.35;100.00;101810.88;10370803;28;20025;-71
2022/06/09 20:06:41;;;;;;;0.00;0.00;;;;;;;14.32;100.00;101819.22;10369831;28;20379;-71
2022/06/09 20:11:41;;;;;;;0.10;0.10;;;;;;;14.30;100.00;101821.22;10368085;28;20033;-71
2022/06/09 20:16:41;;;;;;;0.10;0.10;;;;;;;14.27;100.00;101832.25;10369807;28;20022;-71
2022/06/09 20:21:42;;;;;;;0.10;0.10;;;;;;;14.26;100.00;101828.75;10369742;28;20469;-71
2022/06/09 20:26:42;;;;;;;0.10;0.10;;;;;;;14.16;100.00;101843.22;10354954;28;20173;-71
2022/06/09 20:31:42;;;;;;;0.10;0.10;;;;;;;13.95;100.00;101838.25;10329043;28;20462;-71
2022/06/09 20:36:44;;;;;;;0.10;0.10;;;;;;;13.75;100.00;101840.25;10327301;28;20261;-71
2022/06/09 20:41:45;;;;;;;0.10;0.10;;;;;;;13.58;100.00;101844.63;10328052;28;20486;-71
2022/06/09 20:46:45;;;;;;;0.10;0.10;;;;;;;13.45;100.00;101853.06;10369324;23;20607;-76
2022/06/09 20:51:46;;;;;;;0.10;0.10;;;;;;;13.36;100.00;101846.78;10365444;28;20022;-77
2022/06/09 20:56:46;;;;;;;0.10;0.10;;;;;;;13.35;100.00;101861.19;10364663;28;20065;-77
2022/06/09 21:01:47;;;;;;;0.10;0.10;;;;;;;13.35;100.00;101863.00;10366109;28;20030;-77
2022/06/09 21:06:50;;;;;;;0.10;0.10;;;;;;;13.39;100.00;101864.38;10363099;28;20109;-77
2022/06/09 21:22:29;;;;;;;0.10;0.10;;;;;;;13.39;100.00;101869.72;10368006;28;20030;-76
2022/06/09 21:27:30;;;;;;;0.10;0.10;;;;;;;13.37;100.00;101882.41;10373812;28;20025;-74
2022/06/09 21:32:30;;;;;;;0.10;0.10;;;;;;;13.30;100.00;101892.88;10348319;28;20030;-75
2022/06/09 21:37:31;;;;;;;0.10;0.10;;;;;;;13.19;100.00;101895.75;10339822;28;20473;-75
2022/06/09 21:42:31;;;;;;;0.10;0.10;;;;;;;13.06;100.00;101896.13;10359381;28;20015;-74
2022/06/09 21:47:31;;;;;;;0.10;0.10;;;;;;;12.89;100.00;101899.59;10355375;28;20026;-75
2022/06/09 21:52:32;;;;;;;0.10;0.10;;;;;;;12.73;100.00;101886.00;10336918;28;20034;-74
2022/06/09 21:57:35;;;;;;;0.10;0.10;;;;;;;12.62;100.00;101885.22;10364146;28;20425;-75
2022/06/09 22:02:35;;;;;;;0.10;0.10;;;;;;;12.56;100.00;101890.28;10350252;28;20019;-75
2022/06/09 22:07:36;;;;;;;0.10;0.10;;;;;;;12.54;100.00;101897.63;10361253;28;20030;-75
2022/06/09 22:12:36;;;;;;;0.10;0.10;;;;;;;12.48;100.00;101899.03;10357389;28;20101;-75
2022/06/09 22:17:38;;;;;;;0.00;0.00;;;;;;;12.41;100.00;101903.25;10359502;28;20040;-75
2022/06/09 22:22:39;;;;;;;0.10;0.10;;;;;;;12.30;100.00;101904.25;10353967;28;20551;-75
2022/06/09 22:27:39;;;;;;;0.00;0.00;;;;;;;12.25;100.00;101909.22;10352379;28;20122;-74
2022/06/09 22:32:40;;;;;;;0.10;0.10;;;;;;;12.16;100.00;101912.75;10343148;28;20077;-74
2022/06/09 22:37:40;;;;;;;0.10;0.10;;;;;;;12.09;100.00;101914.28;10350957;28;20030;-74
2022/06/09 22:42:41;;;;;;;0.10;0.10;;;;;;;12.03;100.00;101922.88;10339743;28;20465;-74
2022/06/09 22:47:41;;;;;;;0.10;0.10;;;;;;;11.98;100.00;101923.28;10345309;28;20034;-74
2022/06/09 22:52:42;;;;;;;0.10;0.10;;;;;;;11.92;100.00;101921.19;10330374;28;20779;-74
2022/06/09 22:57:42;;;;;;;0.10;0.10;;;;;;;11.82;100.00;101913.16;10344725;28;20026;-74
2022/06/09 23:02:43;;;;;;;0.10;0.10;;;;;;;11.76;100.00;101919.06;10356869;28;20277;-74
2022/06/09 23:07:44;;;;;;;0.10;0.10;;;;;;;11.69;100.00;101924.13;10350008;28;20437;-75
2022/06/09 23:12:45;;;;;;;0.10;0.10;;;;;;;11.65;100.00;101925.38;10359458;28;20022;-75
2022/06/09 23:17:46;;;;;;;0.08;0.08;;;;;;;11.59;100.00;101930.44;10349009;28;20022;-75
2022/06/09 23:22:47;;;;;;;0.10;0.10;;;;;;;11.51;100.00;101931.94;10348716;28;20125;-75
2022/06/09 23:27:47;;;;;;;0.10;0.10;;;;;;;11.43;100.00;101944.28;10381757;28;20421;-75
2022/06/09 23:32:48;;;;;;;0.10;0.10;;;;;;;11.37;100.00;101943.00;10356897;28;20041;-75